Aérodrome :
LOGIN :

S'inscrire | Disclaimer

   EN    FR    IT 

 










Légende :    VFR   VFR Marginal   IFR   IFR Intensif   IFR Très Intensif
Visi : 
Plafond : 
>= 8 km
>= 3000ft
5 à 8 km
1000 à 3000 ft
1500m à 5 km
500 à 1000 ft
800 à 1500m
200 à 500 ft
< 800m
< 200 ft
Symboles :   Orages  Brouillard  Fortes neiges  Fortes précipitations  Vent > 20 kt
SIGMETs :   Divers  Orages  Givrage  Turbulence  Onde Orograph.  Cendres Volcan.






- Altitude de l'aérodrome : 390 ft
- Code IATA : NQY


EGHQ - Newquay

DERNIER METAR :
  • 110350Z AUTO 17006KT 9999 SCT037/// 06/05 Q1003 RERA

METARs EXPIRÉS :
  • 110320Z AUTO 17007KT 9999 RA BKN041/// 07/06 Q1003
  • 110250Z AUTO 16006KT 9999 BKN044/// 07/06 Q1003
  • 110220Z AUTO 16007KT 9999 FEW047/// 06/05 Q1003
  • 110150Z AUTO 17007KT 9999 NCD 07/06 Q1003
  • 110120Z AUTO 16008KT 9999 NCD 07/06 Q1003

TAF TAF EGHQ
Valide du 11 à 03h jusqu'au 11 à 12h UTC


110156Z 1103/1112 16007KT 9999 FEW025
TEMPO 1103/1112 7000 SHRA
BECMG 1106/1109 16017KT
TEMPO 1108/1111 16020G32KT
PROB30
TEMPO 1109/1112 3000 +TSRAGS BKN012 BKN025CB
BECMG 1110/1112 25017KT



MET'MAP, la Météo Aéronautique d'un coup d'oeil ! - Copyright ORBIFLY Décembre 2007 - Disclaimer

ORBIFLY MET'MAP TEAM :

Programmation & Développement : Alexandra Zaïnal
Sur une idée originale de : Baudouin d'Aumeries
Assistance à la programmation : Marc-Olivier Méhu
Soutien technique & logistique : Manuel Goepfert

Contact : metmap@orbifly.com




SOURCES & CREDITS :

   NOAA